Terminal Aerodrome Forecast
Issued by NWS

Home | Current Version | Previous Version | Text Only | Print | Product List | Glossary On
Versions: 1 2 3 4 5 6 7 8 9 10 11 12 13 14 15 16 17 18
000
FTUS44 KEWX 290900 AAF
TAFSSF
TAF AMD
KSSF 290957Z 2910/3006 00000KT 3SM BR OVC004
      TEMPO 2911/2915 1/2SM FG OVC002
     FM291600 16005KT P6SM SCT008 SCT100 BKN250
     FM292000 08005KT P6SM SCT100
     FM300100 03012KT P6SM SCT030 BKN100=

USA.gov is the U.S. government's official web portal to all federal, state and local government web resources and services.